sensor_id;sensor_type;location;lat;lon;timestamp;pressure;altitude;pressure_sealevel;temperature;humidity
36454;BME280;22478;51.740;-1.314;2023-08-08T00:00:34;100430.62;;;12.23;95.28
36454;BME280;22478;51.740;-1.314;2023-08-08T00:03:01;100432.80;;;10.43;100.00
36454;BME280;22478;51.740;-1.314;2023-08-08T00:05:28;100428.93;;;11.42;100.00
36454;BME280;22478;51.740;-1.314;2023-08-08T00:07:55;100428.05;;;11.98;95.56
36454;BME280;22478;51.740;-1.314;2023-08-08T00:10:22;100430.42;;;9.63;100.00
36454;BME280;22478;51.740;-1.314;2023-08-08T00:12:49;100425.44;;;11.72;100.00
36454;BME280;22478;51.740;-1.314;2023-08-08T00:15:16;100427.79;;;11.02;100.00
36454;BME280;22478;51.740;-1.314;2023-08-08T00:17:43;100427.78;;;10.65;100.00
36454;BME280;22478;51.740;-1.314;2023-08-08T00:20:11;100430.14;;;11.30;100.00
36454;BME280;22478;51.740;-1.314;2023-08-08T00:22:38;100431.64;;;12.12;99.28
36454;BME280;22478;51.740;-1.314;2023-08-08T00:25:06;100431.39;;;9.99;100.00
36454;BME280;22478;51.740;-1.314;2023-08-08T00:27:33;100429.29;;;9.80;100.00
36454;BME280;22478;51.740;-1.314;2023-08-08T00:30:00;100421.54;;;11.48;100.00
36454;BME280;22478;51.740;-1.314;2023-08-08T00:32:27;100420.54;;;10.80;100.00
36454;BME280;22478;51.740;-1.314;2023-08-08T00:34:54;100412.55;;;11.39;100.00
36454;BME280;22478;51.740;-1.314;2023-08-08T00:37:21;100410.52;;;10.78;100.00
36454;BME280;22478;51.740;-1.314;2023-08-08T00:39:48;100410.49;;;10.57;100.00
36454;BME280;22478;51.740;-1.314;2023-08-08T00:42:15;100404.87;;;10.43;100.00
36454;BME280;22478;51.740;-1.314;2023-08-08T00:44:42;100400.84;;;10.04;100.00
36454;BME280;22478;51.740;-1.314;2023-08-08T00:47:09;100386.64;;;11.80;100.00
36454;BME280;22478;51.740;-1.314;2023-08-08T00:49:37;100379.78;;;11.82;97.83
36454;BME280;22478;51.740;-1.314;2023-08-08T00:52:06;100379.21;;;11.99;94.59
36454;BME280;22478;51.740;-1.314;2023-08-08T00:54:33;100380.23;;;11.17;95.60
36454;BME280;22478;51.740;-1.314;2023-08-08T00:57:01;100375.48;;;12.91;87.40
36454;BME280;22478;51.740;-1.314;2023-08-08T00:59:27;100366.78;;;14.10;83.93
36454;BME280;22478;51.740;-1.314;2023-08-08T01:01:56;100365.30;;;13.28;85.96
36454;BME280;22478;51.740;-1.314;2023-08-08T01:04:25;100365.30;;;13.31;89.88
36454;BME280;22478;51.740;-1.314;2023-08-08T01:07:00;100366.54;;;12.82;89.16
36454;BME280;22478;51.740;-1.314;2023-08-08T01:09:31;100362.59;;;13.96;83.97
36454;BME280;22478;51.740;-1.314;2023-08-08T01:12:02;100354.24;;;14.13;80.49
36454;BME280;22478;51.740;-1.314;2023-08-08T01:14:32;100353.37;;;14.43;79.77
36454;BME280;22478;51.740;-1.314;2023-08-08T01:17:00;100358.31;;;14.12;80.03
36454;BME280;22478;51.740;-1.314;2023-08-08T01:19:31;100366.92;;;12.06;85.30
36454;BME280;22478;51.740;-1.314;2023-08-08T01:22:02;100363.04;;;13.51;81.57
36454;BME280;22478;51.740;-1.314;2023-08-08T01:24:32;100363.79;;;13.38;81.42
36454;BME280;22478;51.740;-1.314;2023-08-08T01:27:00;100356.81;;;13.70;78.42
36454;BME280;22478;51.740;-1.314;2023-08-08T01:29:28;100362.70;;;11.59;88.98
36454;BME280;22478;51.740;-1.314;2023-08-08T01:31:55;100361.74;;;12.93;85.26
36454;BME280;22478;51.740;-1.314;2023-08-08T01:34:22;100356.62;;;13.85;82.21
36454;BME280;22478;51.740;-1.314;2023-08-08T01:36:54;100358.45;;;13.62;81.84
36454;BME280;22478;51.740;-1.314;2023-08-08T01:39:25;100357.37;;;12.55;84.29
36454;BME280;22478;51.740;-1.314;2023-08-08T01:41:54;100353.57;;;13.34;81.48
36454;BME280;22478;51.740;-1.314;2023-08-08T01:44:22;100359.16;;;12.74;85.23
36454;BME280;22478;51.740;-1.314;2023-08-08T01:46:49;100357.32;;;11.88;86.31
36454;BME280;22478;51.740;-1.314;2023-08-08T01:49:16;100348.62;;;13.04;81.10
36454;BME280;22478;51.740;-1.314;2023-08-08T01:51:43;100347.32;;;13.00;84.16
36454;BME280;22478;51.740;-1.314;2023-08-08T01:54:10;100341.52;;;12.89;84.63
36454;BME280;22478;51.740;-1.314;2023-08-08T01:56:38;100342.72;;;12.93;84.51
36454;BME280;22478;51.740;-1.314;2023-08-08T01:59:04;100346.57;;;13.05;82.79
36454;BME280;22478;51.740;-1.314;2023-08-08T02:01:32;100343.33;;;13.02;82.07
36454;BME280;22478;51.740;-1.314;2023-08-08T02:03:59;100338.32;;;13.21;81.76
36454;BME280;22478;51.740;-1.314;2023-08-08T02:06:25;100341.66;;;13.52;81.43
36454;BME280;22478;51.740;-1.314;2023-08-08T02:08:53;100337.22;;;13.42;81.52
36454;BME280;22478;51.740;-1.314;2023-08-08T02:11:20;100336.79;;;13.46;79.16
36454;BME280;22478;51.740;-1.314;2023-08-08T02:13:47;100339.19;;;13.89;78.64
36454;BME280;22478;51.740;-1.314;2023-08-08T02:16:14;100335.60;;;12.94;79.78
36454;BME280;22478;51.740;-1.314;2023-08-08T02:18:41;100332.58;;;13.55;81.77
36454;BME280;22478;51.740;-1.314;2023-08-08T02:21:08;100343.18;;;12.59;81.36
36454;BME280;22478;51.740;-1.314;2023-08-08T02:23:35;100344.54;;;13.46;81.49
36454;BME280;22478;51.740;-1.314;2023-08-08T02:26:03;100341.65;;;13.31;78.42
36454;BME280;22478;51.740;-1.314;2023-08-08T02:28:31;100346.62;;;12.61;81.19
36454;BME280;22478;51.740;-1.314;2023-08-08T02:30:59;100343.71;;;12.95;84.34
36454;BME280;22478;51.740;-1.314;2023-08-08T02:33:26;100341.54;;;14.26;78.91
36454;BME280;22478;51.740;-1.314;2023-08-08T02:35:53;100347.50;;;11.31;91.25
36454;BME280;22478;51.740;-1.314;2023-08-08T02:38:20;100343.95;;;12.25;85.66
36454;BME280;22478;51.740;-1.314;2023-08-08T02:40:47;100335.04;;;12.01;89.27
36454;BME280;22478;51.740;-1.314;2023-08-08T02:43:14;100331.62;;;12.56;87.24
36454;BME280;22478;51.740;-1.314;2023-08-08T02:45:41;100335.11;;;12.32;89.39
36454;BME280;22478;51.740;-1.314;2023-08-08T02:48:08;100335.85;;;10.51;97.99
36454;BME280;22478;51.740;-1.314;2023-08-08T02:50:35;100340.62;;;11.51;91.20
36454;BME280;22478;51.740;-1.314;2023-08-08T02:53:03;100346.01;;;12.16;90.48
36454;BME280;22478;51.740;-1.314;2023-08-08T02:55:30;100352.07;;;11.58;93.33
36454;BME280;22478;51.740;-1.314;2023-08-08T02:57:57;100352.98;;;10.37;100.00
36454;BME280;22478;51.740;-1.314;2023-08-08T03:00:24;100342.29;;;12.18;95.46
36454;BME280;22478;51.740;-1.314;2023-08-08T03:02:51;100339.29;;;12.09;94.42
36454;BME280;22478;51.740;-1.314;2023-08-08T03:05:18;100340.61;;;11.60;98.00
36454;BME280;22478;51.740;-1.314;2023-08-08T03:07:45;100339.66;;;11.84;97.41
36454;BME280;22478;51.740;-1.314;2023-08-08T03:10:12;100338.19;;;12.16;94.14
36454;BME280;22478;51.740;-1.314;2023-08-08T03:12:40;100333.51;;;12.10;95.63
36454;BME280;22478;51.740;-1.314;2023-08-08T03:15:08;100329.23;;;13.13;90.77
36454;BME280;22478;51.740;-1.314;2023-08-08T03:17:36;100328.65;;;12.45;91.64
36454;BME280;22478;51.740;-1.314;2023-08-08T03:20:04;100328.85;;;12.39;90.90
36454;BME280;22478;51.740;-1.314;2023-08-08T03:22:32;100329.90;;;13.90;87.11
36454;BME280;22478;51.740;-1.314;2023-08-08T03:24:59;100325.92;;;14.02;84.32
36454;BME280;22478;51.740;-1.314;2023-08-08T03:27:26;100332.32;;;13.46;87.80
36454;BME280;22478;51.740;-1.314;2023-08-08T03:29:53;100325.63;;;14.47;84.09
36454;BME280;22478;51.740;-1.314;2023-08-08T03:32:20;100338.36;;;13.08;87.36
36454;BME280;22478;51.740;-1.314;2023-08-08T03:34:47;100341.45;;;13.33;85.09
36454;BME280;22478;51.740;-1.314;2023-08-08T03:37:14;100339.29;;;13.82;87.82
36454;BME280;22478;51.740;-1.314;2023-08-08T03:39:41;100343.12;;;12.83;90.05
36454;BME280;22478;51.740;-1.314;2023-08-08T03:42:08;100344.25;;;12.83;93.72
36454;BME280;22478;51.740;-1.314;2023-08-08T03:44:35;100338.93;;;13.96;87.63
36454;BME280;22478;51.740;-1.314;2023-08-08T03:47:02;100338.73;;;13.84;86.36
36454;BME280;22478;51.740;-1.314;2023-08-08T03:49:30;100336.94;;;13.13;87.26
36454;BME280;22478;51.740;-1.314;2023-08-08T03:51:57;100336.24;;;13.47;86.76
36454;BME280;22478;51.740;-1.314;2023-08-08T03:54:24;100335.23;;;12.96;87.49
36454;BME280;22478;51.740;-1.314;2023-08-08T03:56:51;100335.89;;;12.57;92.99
36454;BME280;22478;51.740;-1.314;2023-08-08T03:59:18;100331.95;;;13.47;87.61
36454;BME280;22478;51.740;-1.314;2023-08-08T04:01:45;100328.91;;;13.69;87.40
36454;BME280;22478;51.740;-1.314;2023-08-08T04:04:12;100326.33;;;13.40;84.65
36454;BME280;22478;51.740;-1.314;2023-08-08T04:06:39;100323.37;;;13.08;89.26
36454;BME280;22478;51.740;-1.314;2023-08-08T04:09:06;100317.48;;;13.31;88.87
36454;BME280;22478;51.740;-1.314;2023-08-08T04:11:33;100318.13;;;12.91;88.47
36454;BME280;22478;51.740;-1.314;2023-08-08T04:14:00;100328.44;;;13.41;88.06
36454;BME280;22478;51.740;-1.314;2023-08-08T04:16:27;100326.48;;;13.39;88.41
36454;BME280;22478;51.740;-1.314;2023-08-08T04:18:54;100317.60;;;13.21;87.50
36454;BME280;22478;51.740;-1.314;2023-08-08T04:21:21;100310.14;;;14.25;85.47
36454;BME280;22478;51.740;-1.314;2023-08-08T04:23:48;100311.97;;;13.66;86.29
36454;BME280;22478;51.740;-1.314;2023-08-08T04:26:15;100312.19;;;13.14;91.16
36454;BME280;22478;51.740;-1.314;2023-08-08T04:28:42;100315.77;;;12.45;93.68
36454;BME280;22478;51.740;-1.314;2023-08-08T04:31:09;100319.25;;;12.38;93.49
36454;BME280;22478;51.740;-1.314;2023-08-08T04:33:36;100319.08;;;13.54;88.85
36454;BME280;22478;51.740;-1.314;2023-08-08T04:36:03;100315.43;;;12.94;88.75
36454;BME280;22478;51.740;-1.314;2023-08-08T04:38:31;100312.19;;;14.05;87.80
36454;BME280;22478;51.740;-1.314;2023-08-08T04:40:59;100313.57;;;12.84;91.34
36454;BME280;22478;51.740;-1.314;2023-08-08T04:43:26;100314.21;;;13.57;89.82
36454;BME280;22478;51.740;-1.314;2023-08-08T04:45:53;100315.33;;;13.85;88.08
36454;BME280;22478;51.740;-1.314;2023-08-08T04:48:21;100317.57;;;13.18;92.76
36454;BME280;22478;51.740;-1.314;2023-08-08T04:50:48;100318.58;;;13.08;92.72
36454;BME280;22478;51.740;-1.314;2023-08-08T04:53:15;100317.15;;;13.35;92.10
36454;BME280;22478;51.740;-1.314;2023-08-08T04:55:42;100312.76;;;13.68;88.49
36454;BME280;22478;51.740;-1.314;2023-08-08T04:58:09;100310.63;;;13.60;92.00
36454;BME280;22478;51.740;-1.314;2023-08-08T05:00:36;100316.70;;;13.06;95.36
36454;BME280;22478;51.740;-1.314;2023-08-08T05:03:03;100307.75;;;13.79;89.71
36454;BME280;22478;51.740;-1.314;2023-08-08T05:05:31;100311.51;;;13.47;92.03
36454;BME280;22478;51.740;-1.314;2023-08-08T05:07:59;100313.10;;;13.36;94.18
36454;BME280;22478;51.740;-1.314;2023-08-08T05:10:26;100310.75;;;11.46;100.00
36454;BME280;22478;51.740;-1.314;2023-08-08T05:12:53;100311.34;;;13.45;97.93
36454;BME280;22478;51.740;-1.314;2023-08-08T05:15:20;100299.23;;;13.52;94.55
36454;BME280;22478;51.740;-1.314;2023-08-08T05:17:48;100298.54;;;12.55;98.23
36454;BME280;22478;51.740;-1.314;2023-08-08T05:20:15;100293.58;;;13.37;99.02
36454;BME280;22478;51.740;-1.314;2023-08-08T05:22:42;100286.92;;;13.54;94.50
36454;BME280;22478;51.740;-1.314;2023-08-08T05:25:10;100284.85;;;13.11;93.54
36454;BME280;22478;51.740;-1.314;2023-08-08T05:27:37;100278.94;;;13.80;94.08
36454;BME280;22478;51.740;-1.314;2023-08-08T05:30:05;100278.83;;;14.27;93.30
36454;BME280;22478;51.740;-1.314;2023-08-08T05:32:33;100273.84;;;14.32;91.35
36454;BME280;22478;51.740;-1.314;2023-08-08T05:35:00;100276.58;;;14.14;93.97
36454;BME280;22478;51.740;-1.314;2023-08-08T05:37:27;100276.52;;;13.35;95.26
36454;BME280;22478;51.740;-1.314;2023-08-08T05:39:54;100272.63;;;13.89;96.96
36454;BME280;22478;51.740;-1.314;2023-08-08T05:42:21;100274.11;;;13.22;98.58
36454;BME280;22478;51.740;-1.314;2023-08-08T05:44:48;100272.14;;;14.10;93.80
36454;BME280;22478;51.740;-1.314;2023-08-08T05:47:15;100278.89;;;13.33;97.48
36454;BME280;22478;51.740;-1.314;2023-08-08T05:49:42;100284.67;;;13.06;100.00
36454;BME280;22478;51.740;-1.314;2023-08-08T05:52:09;100285.45;;;14.30;96.21
36454;BME280;22478;51.740;-1.314;2023-08-08T05:54:37;100286.46;;;13.92;96.10
36454;BME280;22478;51.740;-1.314;2023-08-08T05:57:05;100286.09;;;14.48;94.10
36454;BME280;22478;51.740;-1.314;2023-08-08T05:59:32;100286.16;;;13.96;98.81
36454;BME280;22478;51.740;-1.314;2023-08-08T06:02:00;100290.77;;;14.94;93.95
36454;BME280;22478;51.740;-1.314;2023-08-08T06:04:27;100287.90;;;13.98;95.95
36454;BME280;22478;51.740;-1.314;2023-08-08T06:06:54;100287.58;;;14.23;95.04
36454;BME280;22478;51.740;-1.314;2023-08-08T06:09:21;100294.21;;;14.81;91.72
36454;BME280;22478;51.740;-1.314;2023-08-08T06:11:48;100295.20;;;14.02;97.19
36454;BME280;22478;51.740;-1.314;2023-08-08T06:14:15;100292.93;;;14.18;98.86
36454;BME280;22478;51.740;-1.314;2023-08-08T06:16:42;100291.01;;;14.95;94.44
36454;BME280;22478;51.740;-1.314;2023-08-08T06:19:09;100299.91;;;13.57;100.00
36454;BME280;22478;51.740;-1.314;2023-08-08T06:21:36;100299.45;;;12.19;100.00
36454;BME280;22478;51.740;-1.314;2023-08-08T06:24:04;100291.03;;;14.27;100.00
36454;BME280;22478;51.740;-1.314;2023-08-08T06:26:32;100287.49;;;13.70;98.76
36454;BME280;22478;51.740;-1.314;2023-08-08T06:28:59;100286.15;;;14.49;95.89
36454;BME280;22478;51.740;-1.314;2023-08-08T06:31:26;100285.56;;;14.06;98.16
36454;BME280;22478;51.740;-1.314;2023-08-08T06:33:53;100285.68;;;14.19;100.00
36454;BME280;22478;51.740;-1.314;2023-08-08T06:36:19;100288.32;;;13.98;99.18
36454;BME280;22478;51.740;-1.314;2023-08-08T06:38:46;100289.79;;;14.32;95.03
36454;BME280;22478;51.740;-1.314;2023-08-08T06:41:13;100291.02;;;13.44;100.00
36454;BME280;22478;51.740;-1.314;2023-08-08T06:43:40;100288.44;;;13.59;100.00
36454;BME280;22478;51.740;-1.314;2023-08-08T06:46:07;100283.37;;;14.40;100.00
36454;BME280;22478;51.740;-1.314;2023-08-08T06:48:34;100283.47;;;13.80;99.53
36454;BME280;22478;51.740;-1.314;2023-08-08T06:51:01;100283.13;;;14.30;100.00
36454;BME280;22478;51.740;-1.314;2023-08-08T06:53:28;100281.32;;;15.16;98.19
36454;BME280;22478;51.740;-1.314;2023-08-08T06:55:55;100286.34;;;14.80;100.00
36454;BME280;22478;51.740;-1.314;2023-08-08T06:58:22;100285.10;;;13.52;100.00
36454;BME280;22478;51.740;-1.314;2023-08-08T07:00:50;100287.05;;;13.60;100.00
36454;BME280;22478;51.740;-1.314;2023-08-08T07:03:18;100287.25;;;14.64;100.00
36454;BME280;22478;51.740;-1.314;2023-08-08T07:05:45;100280.59;;;13.81;100.00
36454;BME280;22478;51.740;-1.314;2023-08-08T07:08:12;100294.15;;;10.87;100.00
36454;BME280;22478;51.740;-1.314;2023-08-08T07:10:40;100283.27;;;13.92;100.00
36454;BME280;22478;51.740;-1.314;2023-08-08T07:13:07;100285.39;;;15.29;100.00
36454;BME280;22478;51.740;-1.314;2023-08-08T07:15:34;100281.47;;;15.09;100.00
36454;BME280;22478;51.740;-1.314;2023-08-08T07:18:00;100284.61;;;15.01;100.00
36454;BME280;22478;51.740;-1.314;2023-08-08T07:20:27;100279.75;;;13.19;100.00
36454;BME280;22478;51.740;-1.314;2023-08-08T07:22:54;100279.96;;;15.17;100.00
36454;BME280;22478;51.740;-1.314;2023-08-08T07:25:21;100280.02;;;14.81;100.00
36454;BME280;22478;51.740;-1.314;2023-08-08T07:27:48;100269.94;;;15.69;100.00
36454;BME280;22478;51.740;-1.314;2023-08-08T07:30:15;100272.93;;;14.77;100.00
36454;BME280;22478;51.740;-1.314;2023-08-08T07:32:42;100272.82;;;16.01;98.89
36454;BME280;22478;51.740;-1.314;2023-08-08T07:35:09;100277.23;;;14.46;100.00
36454;BME280;22478;51.740;-1.314;2023-08-08T07:37:36;100273.00;;;15.34;100.00
36454;BME280;22478;51.740;-1.314;2023-08-08T07:40:13;100273.34;;;14.69;100.00
36454;BME280;22478;51.740;-1.314;2023-08-08T07:42:40;100275.04;;;14.72;100.00
36454;BME280;22478;51.740;-1.314;2023-08-08T07:45:08;100278.49;;;14.46;100.00
36454;BME280;22478;51.740;-1.314;2023-08-08T07:47:35;100268.76;;;14.81;100.00
36454;BME280;22478;51.740;-1.314;2023-08-08T07:50:02;100267.92;;;15.35;100.00
36454;BME280;22478;51.740;-1.314;2023-08-08T07:52:30;100261.88;;;15.11;100.00
36454;BME280;22478;51.740;-1.314;2023-08-08T07:54:57;100262.83;;;13.72;100.00
36454;BME280;22478;51.740;-1.314;2023-08-08T07:57:26;100270.02;;;14.88;100.00
36454;BME280;22478;51.740;-1.314;2023-08-08T07:59:53;100269.04;;;14.76;100.00
36454;BME280;22478;51.740;-1.314;2023-08-08T08:02:20;100266.72;;;16.22;100.00
36454;BME280;22478;51.740;-1.314;2023-08-08T08:04:47;100271.53;;;12.46;100.00
36454;BME280;22478;51.740;-1.314;2023-08-08T08:07:14;100271.58;;;13.30;100.00
36454;BME280;22478;51.740;-1.314;2023-08-08T08:09:41;100273.49;;;14.64;100.00
36454;BME280;22478;51.740;-1.314;2023-08-08T08:12:09;100270.48;;;13.87;100.00
36454;BME280;22478;51.740;-1.314;2023-08-08T08:14:36;100266.26;;;14.96;100.00
36454;BME280;22478;51.740;-1.314;2023-08-08T08:17:03;100269.14;;;13.56;100.00
36454;BME280;22478;51.740;-1.314;2023-08-08T08:19:31;100266.29;;;14.94;100.00
36454;BME280;22478;51.740;-1.314;2023-08-08T08:21:59;100269.56;;;14.26;100.00
36454;BME280;22478;51.740;-1.314;2023-08-08T08:24:25;100265.80;;;15.54;100.00
36454;BME280;22478;51.740;-1.314;2023-08-08T08:26:53;100257.91;;;15.57;100.00
36454;BME280;22478;51.740;-1.314;2023-08-08T08:29:19;100262.12;;;14.57;100.00
36454;BME280;22478;51.740;-1.314;2023-08-08T08:31:46;100257.68;;;15.18;100.00
36454;BME280;22478;51.740;-1.314;2023-08-08T08:34:13;100259.34;;;14.20;100.00
36454;BME280;22478;51.740;-1.314;2023-08-08T08:36:40;100259.41;;;13.42;100.00
36454;BME280;22478;51.740;-1.314;2023-08-08T08:39:07;100253.50;;;14.47;100.00
36454;BME280;22478;51.740;-1.314;2023-08-08T08:41:35;100246.36;;;13.37;100.00
36454;BME280;22478;51.740;-1.314;2023-08-08T08:44:04;100244.33;;;13.63;100.00
36454;BME280;22478;51.740;-1.314;2023-08-08T08:46:31;100243.46;;;15.05;100.00
36454;BME280;22478;51.740;-1.314;2023-08-08T08:49:00;100254.40;;;14.59;100.00
36454;BME280;22478;51.740;-1.314;2023-08-08T08:51:29;100255.99;;;14.25;100.00
36454;BME280;22478;51.740;-1.314;2023-08-08T08:53:58;100255.64;;;12.63;100.00
36454;BME280;22478;51.740;-1.314;2023-08-08T08:56:26;100249.37;;;15.34;100.00
36454;BME280;22478;51.740;-1.314;2023-08-08T08:58:53;100242.80;;;15.35;100.00
36454;BME280;22478;51.740;-1.314;2023-08-08T09:01:21;100238.05;;;15.26;100.00
36454;BME280;22478;51.740;-1.314;2023-08-08T09:03:51;100242.36;;;15.97;100.00
36454;BME280;22478;51.740;-1.314;2023-08-08T09:06:18;100246.10;;;16.08;100.00
36454;BME280;22478;51.740;-1.314;2023-08-08T09:08:45;100244.87;;;15.89;99.79
36454;BME280;22478;51.740;-1.314;2023-08-08T09:11:12;100247.90;;;15.12;100.00
36454;BME280;22478;51.740;-1.314;2023-08-08T09:13:40;100244.47;;;14.73;100.00
36454;BME280;22478;51.740;-1.314;2023-08-08T09:16:08;100244.38;;;15.64;100.00
36454;BME280;22478;51.740;-1.314;2023-08-08T09:18:36;100250.19;;;14.38;100.00
36454;BME280;22478;51.740;-1.314;2023-08-08T09:21:03;100243.96;;;14.59;100.00
36454;BME280;22478;51.740;-1.314;2023-08-08T09:23:31;100241.49;;;13.90;100.00
36454;BME280;22478;51.740;-1.314;2023-08-08T09:25:57;100240.04;;;14.50;100.00
36454;BME280;22478;51.740;-1.314;2023-08-08T09:28:25;100231.44;;;15.71;100.00
36454;BME280;22478;51.740;-1.314;2023-08-08T09:30:52;100233.49;;;15.17;100.00
36454;BME280;22478;51.740;-1.314;2023-08-08T09:33:19;100232.15;;;14.64;100.00
36454;BME280;22478;51.740;-1.314;2023-08-08T09:35:46;100232.92;;;13.17;100.00
36454;BME280;22478;51.740;-1.314;2023-08-08T09:38:13;100227.58;;;12.84;100.00
36454;BME280;22478;51.740;-1.314;2023-08-08T09:40:40;100227.12;;;13.04;100.00
36454;BME280;22478;51.740;-1.314;2023-08-08T09:43:07;100222.19;;;13.69;100.00
36454;BME280;22478;51.740;-1.314;2023-08-08T09:45:36;100219.20;;;13.31;100.00
36454;BME280;22478;51.740;-1.314;2023-08-08T09:48:05;100220.51;;;13.43;100.00
36454;BME280;22478;51.740;-1.314;2023-08-08T09:50:33;100217.37;;;13.26;100.00
36454;BME280;22478;51.740;-1.314;2023-08-08T09:53:01;100216.86;;;14.51;100.00
36454;BME280;22478;51.740;-1.314;2023-08-08T09:55:29;100223.25;;;12.62;100.00
36454;BME280;22478;51.740;-1.314;2023-08-08T09:57:57;100212.08;;;13.82;100.00
36454;BME280;22478;51.740;-1.314;2023-08-08T10:00:25;100204.32;;;14.20;100.00
36454;BME280;22478;51.740;-1.314;2023-08-08T10:02:52;100207.24;;;12.08;100.00
36454;BME280;22478;51.740;-1.314;2023-08-08T10:05:21;100198.13;;;13.30;100.00
36454;BME280;22478;51.740;-1.314;2023-08-08T10:07:48;100195.20;;;13.11;100.00
36454;BME280;22478;51.740;-1.314;2023-08-08T10:10:17;100189.40;;;13.23;100.00
36454;BME280;22478;51.740;-1.314;2023-08-08T10:12:47;100185.36;;;12.41;100.00
36454;BME280;22478;51.740;-1.314;2023-08-08T10:15:14;100179.93;;;14.00;100.00
36454;BME280;22478;51.740;-1.314;2023-08-08T10:17:42;100174.99;;;13.41;100.00
36454;BME280;22478;51.740;-1.314;2023-08-08T10:20:11;100176.41;;;12.34;100.00
36454;BME280;22478;51.740;-1.314;2023-08-08T10:22:43;100172.09;;;13.49;100.00
36454;BME280;22478;51.740;-1.314;2023-08-08T10:25:18;100175.73;;;13.15;100.00
36454;BME280;22478;51.740;-1.314;2023-08-08T10:27:45;100176.23;;;12.86;100.00
36454;BME280;22478;51.740;-1.314;2023-08-08T10:30:12;100178.21;;;14.48;100.00
36454;BME280;22478;51.740;-1.314;2023-08-08T10:32:40;100169.63;;;15.20;100.00
36454;BME280;22478;51.740;-1.314;2023-08-08T10:35:10;100171.46;;;15.38;100.00
36454;BME280;22478;51.740;-1.314;2023-08-08T10:37:38;100168.25;;;15.04;100.00
36454;BME280;22478;51.740;-1.314;2023-08-08T10:40:06;100166.84;;;13.68;100.00
36454;BME280;22478;51.740;-1.314;2023-08-08T10:42:42;100167.16;;;14.00;100.00
36454;BME280;22478;51.740;-1.314;2023-08-08T10:45:13;100175.29;;;13.86;100.00
36454;BME280;22478;51.740;-1.314;2023-08-08T10:47:42;100181.46;;;11.76;100.00
36454;BME280;22478;51.740;-1.314;2023-08-08T10:50:11;100175.00;;;14.14;100.00
36454;BME280;22478;51.740;-1.314;2023-08-08T10:52:50;100170.15;;;14.46;100.00
36454;BME280;22478;51.740;-1.314;2023-08-08T10:55:20;100168.81;;;14.78;100.00
36454;BME280;22478;51.740;-1.314;2023-08-08T10:57:53;100159.88;;;14.27;100.00
36454;BME280;22478;51.740;-1.314;2023-08-08T11:00:25;100150.73;;;15.44;100.00
36454;BME280;22478;51.740;-1.314;2023-08-08T11:02:53;100152.27;;;14.18;100.00
36454;BME280;22478;51.740;-1.314;2023-08-08T11:05:21;100151.10;;;15.97;100.00
36454;BME280;22478;51.740;-1.314;2023-08-08T11:07:48;100151.72;;;13.63;100.00
36454;BME280;22478;51.740;-1.314;2023-08-08T11:10:16;100147.09;;;14.26;100.00
36454;BME280;22478;51.740;-1.314;2023-08-08T11:12:53;100148.29;;;14.60;100.00
36454;BME280;22478;51.740;-1.314;2023-08-08T11:15:21;100148.52;;;15.63;100.00
36454;BME280;22478;51.740;-1.314;2023-08-08T11:17:48;100149.73;;;15.09;100.00
36454;BME280;22478;51.740;-1.314;2023-08-08T11:20:16;100154.88;;;14.62;100.00
36454;BME280;22478;51.740;-1.314;2023-08-08T11:22:43;100146.84;;;15.28;100.00
36454;BME280;22478;51.740;-1.314;2023-08-08T11:25:09;100147.64;;;16.35;100.00
36454;BME280;22478;51.740;-1.314;2023-08-08T11:27:36;100140.83;;;15.39;100.00
36454;BME280;22478;51.740;-1.314;2023-08-08T11:30:05;100140.06;;;15.20;100.00
36454;BME280;22478;51.740;-1.314;2023-08-08T11:32:33;100138.68;;;14.02;100.00
36454;BME280;22478;51.740;-1.314;2023-08-08T11:35:02;100137.96;;;15.37;100.00
36454;BME280;22478;51.740;-1.314;2023-08-08T11:37:29;100135.17;;;14.97;100.00
36454;BME280;22478;51.740;-1.314;2023-08-08T11:39:56;100134.14;;;15.95;100.00
36454;BME280;22478;51.740;-1.314;2023-08-08T11:42:24;100125.90;;;16.75;100.00
36454;BME280;22478;51.740;-1.314;2023-08-08T11:44:52;100120.89;;;14.54;100.00
36454;BME280;22478;51.740;-1.314;2023-08-08T11:47:24;100119.74;;;13.98;100.00
36454;BME280;22478;51.740;-1.314;2023-08-08T11:49:52;100113.33;;;15.25;100.00
36454;BME280;22478;51.740;-1.314;2023-08-08T11:52:19;100111.67;;;15.35;100.00
36454;BME280;22478;51.740;-1.314;2023-08-08T11:54:51;100108.42;;;16.27;100.00
36454;BME280;22478;51.740;-1.314;2023-08-08T11:57:18;100105.23;;;15.87;100.00
36454;BME280;22478;51.740;-1.314;2023-08-08T11:59:44;100103.58;;;16.45;100.00
36454;BME280;22478;51.740;-1.314;2023-08-08T12:02:11;100104.43;;;13.82;100.00
36454;BME280;22478;51.740;-1.314;2023-08-08T12:04:38;100109.26;;;16.12;100.00
36454;BME280;22478;51.740;-1.314;2023-08-08T12:07:05;100101.41;;;16.58;100.00
36454;BME280;22478;51.740;-1.314;2023-08-08T12:09:32;100104.19;;;13.80;100.00
36454;BME280;22478;51.740;-1.314;2023-08-08T12:12:00;100105.92;;;15.14;100.00
36454;BME280;22478;51.740;-1.314;2023-08-08T12:14:27;100097.03;;;15.02;100.00
36454;BME280;22478;51.740;-1.314;2023-08-08T12:16:54;100102.17;;;15.32;100.00
36454;BME280;22478;51.740;-1.314;2023-08-08T12:19:23;100103.72;;;14.86;100.00
36454;BME280;22478;51.740;-1.314;2023-08-08T12:21:51;100102.54;;;16.75;100.00
36454;BME280;22478;51.740;-1.314;2023-08-08T12:24:19;100097.31;;;16.24;100.00
36454;BME280;22478;51.740;-1.314;2023-08-08T12:26:46;100097.38;;;15.55;100.00
36454;BME280;22478;51.740;-1.314;2023-08-08T12:29:13;100089.51;;;13.71;100.00
36454;BME280;22478;51.740;-1.314;2023-08-08T12:31:40;100090.92;;;14.92;100.00
36454;BME280;22478;51.740;-1.314;2023-08-08T12:34:07;100091.67;;;16.01;100.00
36454;BME280;22478;51.740;-1.314;2023-08-08T12:36:34;100088.29;;;15.56;100.00